Kingsville Naval Air Station
KNQI : now visible

Airfield :











YOU CAN JOIN US ON...

 
LOGIN :

Register | Disclaimer

   EN    FR    IT 

 









Legend :    VFR   Marginal VFR   IFR   Intensive IFR   Very Intensive IFR
Visi :
Ceiling :
>= 8 km
>= 3000ft
5 to 8 km
1000 to 3000 ft
1500m to 5 km
500 to 1000 ft
800 to 1500m
200 to 500 ft
< 800m
< 200 ft
Symbols :   Thunderstorms  Fog  Heavy snow  Heavy precipitations  Wind > 20 kt






- Airport Elevation : 50 ft


KNQI - Kingsville Naval Air Station

CURRENT METAR :
  • 271756Z 15005KT 9SM OVC004 16/15 A3002 RMK AO2 SLP163 T01610150 10161 20089 58004 $

EXPIRED METARs :
  • 271739Z 15006KT 9SM OVC004 16/15 A3003 RMK AO2 T01560150 $
  • 271722Z 17004KT 2 1/2SM BR OVC003 16/15 A3004 RMK AO2 SFC VIS 6 T01560150 $
  • 271701Z 15005KT 1SM BR OVC002 15/14 A3004 RMK AO2 SFC VIS 4 T01500144 $
  • 271656Z 15007KT 1/2SM BR OVC002 15/14 A3004 RMK AO2 SFC VIS 3 SLP168 T01500144 $
  • 271647Z 16007KT 1/2SM BR VV002 15/14 A3004 RMK AO2 SFC VIS 3/4 T01500144 $
  • 271556Z 18006KT 1/4SM FG VV002 14/14 A3003 RMK AO2 SLP167 T01390139 $

TAF TAF KNQI
Valid from the 27 at 15:00 until the 28 at 15:00 UTC


2715/2815 12003KT 0200 FG VV002 QNH3002INS
TEMPO 2715/2716 VRB03KT 0800 FG OVC002 QNH3002INS
FM271700 14006KT 4800 BR BKN003 QNH3003INS
FM271730 14006KT 9999 BKN005 QNH3006INS
FM271800 14007KT 9999 SCT010 QNH2992INS
FM272100 13010KT 9999 FEW025 QNH2989INS
FM272300 130011KT 9999 SCT020 QNH2990INS
FM280200 13010KT 9000 BR FEW010 SCT020 QNH2990INS
FM280500 14007KT 3200 BR FEW002 SCT006 BKN015 QNH2992INS
TEMPO 2808/2811 0800 FG VV002
TEMPO 2811/2814 34007KT 0400 FG VV001 T27/2721Z T15/2812Z FN00003



MET'MAP, your aeronautical weather chart ! - Copyright ORBIFLY December 2007 - Disclaimer

ORBIFLY MET'MAP TEAM :

Programming & Development : Alexandra Zaïnal
Concept & original design : Baudouin d'Aumeries
Assistance for programming : Marc-Olivier Méhu
Technical & hardware support : Manuel Goepfert

Contact : metmap@orbifly.com




SOURCES & CREDITS :

   NOAA       Earth
Advisory